Time;durP1;ratioP1;P1;durP2;ratioP2;P2;SDS_P1;SDS_P2;PMS_P1;PMS_P2;Temp;Humidity;BMP_temperature;BMP_pressure;BME280_temperature;BME280_humidity;BME280_pressure;Samples;Min_cycle;Max_cycle;Signal;HPM_P1;HPM_P2
2024/01/04 00:00:03;;;;;;;5.43;2.17;;;11.30;80.70;;;;;;5051125;28;20442;-63
2024/01/04 00:02:31;;;;;;;9.77;2.45;;;11.30;80.80;;;;;;5050091;28;20025;-63
2024/01/04 00:04:57;;;;;;;7.15;2.63;;;11.30;80.70;;;;;;5052549;28;20064;-63
2024/01/04 00:07:23;;;;;;;8.50;3.05;;;11.30;80.70;;;;;;5049195;28;20056;-63
2024/01/04 00:09:51;;;;;;;6.68;2.50;;;11.30;80.80;;;;;;5051144;28;20064;-63
2024/01/04 00:12:20;;;;;;;8.07;2.88;;;11.30;81.20;;;;;;5049782;28;20029;-63
2024/01/04 00:14:45;;;;;;;7.95;2.90;;;11.30;80.90;;;;;;5050653;28;20021;-63
2024/01/04 00:17:11;;;;;;;5.82;2.25;;;11.30;80.90;;;;;;5047297;28;20444;-63
2024/01/04 00:19:37;;;;;;;6.68;2.58;;;11.30;81.00;;;;;;5048129;28;20091;-63
2024/01/04 00:22:03;;;;;;;6.38;2.80;;;11.30;80.90;;;;;;5050557;28;20439;-63
2024/01/04 00:24:29;;;;;;;7.82;2.45;;;11.30;80.90;;;;;;5052970;28;20433;-63
2024/01/04 00:26:54;;;;;;;7.32;2.55;;;11.30;80.90;;;;;;5053593;28;20029;-65
2024/01/04 00:29:20;;;;;;;5.63;2.22;;;11.30;80.80;;;;;;5055764;28;20032;-63
2024/01/04 00:31:46;;;;;;;5.93;1.80;;;11.30;80.70;;;;;;5037871;28;20262;-63
2024/01/04 00:34:12;;;;;;;5.85;2.08;;;11.30;80.70;;;;;;5052764;28;20033;-63
2024/01/04 00:36:38;;;;;;;6.15;2.15;;;11.30;80.70;;;;;;5053368;28;20040;-63
2024/01/04 00:39:04;;;;;;;4.38;1.77;;;11.30;80.70;;;;;;5054440;28;20028;-63
2024/01/04 00:41:29;;;;;;;4.40;1.50;;;11.30;80.70;;;;;;5056014;28;20029;-63
2024/01/04 00:43:55;;;;;;;6.50;1.98;;;11.30;80.80;;;;;;5059373;28;20120;-63
2024/01/04 00:46:21;;;;;;;7.70;2.20;;;11.30;80.90;;;;;;5056951;28;20383;-63
2024/01/04 00:48:46;;;;;;;5.25;1.55;;;11.30;80.90;;;;;;5054740;28;20453;-63
2024/01/04 00:51:13;;;;;;;5.00;1.73;;;11.30;80.90;;;;;;5056197;28;20422;-63
2024/01/04 00:53:38;;;;;;;5.22;1.80;;;11.30;80.80;;;;;;5056006;28;20061;-63
2024/01/04 00:56:04;;;;;;;5.18;1.85;;;11.30;80.90;;;;;;5055851;28;20433;-63
2024/01/04 00:58:30;;;;;;;7.28;1.83;;;11.30;80.90;;;;;;5055375;28;20029;-64
2024/01/04 01:00:57;;;;;;;5.32;2.28;;;11.30;81.50;;;;;;5058086;28;20029;-63
2024/01/04 01:03:23;;;;;;;6.60;2.38;;;11.30;80.90;;;;;;5058501;28;20091;-63
2024/01/04 01:05:49;;;;;;;6.65;1.92;;;11.30;81.00;;;;;;5058334;28;20028;-63
2024/01/04 01:08:16;;;;;;;6.18;1.75;;;11.30;81.00;;;;;;5059450;28;20029;-63
2024/01/04 01:10:41;;;;;;;5.50;2.00;;;11.30;80.90;;;;;;5057593;28;20075;-63
2024/01/04 01:13:07;;;;;;;6.20;2.10;;;11.20;80.90;;;;;;5057008;28;20025;-63
2024/01/04 01:15:33;;;;;;;5.00;1.92;;;11.30;80.90;;;;;;5055138;28;20033;-63
2024/01/04 01:18:00;;;;;;;4.90;2.03;;;11.30;81.00;;;;;;5055040;28;20024;-63
2024/01/04 01:20:26;;;;;;;5.13;1.65;;;11.30;81.00;;;;;;5058736;28;20353;-63
2024/01/04 01:22:52;;;;;;;5.82;2.30;;;11.30;80.90;;;;;;5041012;28;20025;-63
2024/01/04 01:25:17;;;;;;;6.00;2.15;;;11.30;80.90;;;;;;5057140;28;20025;-63
2024/01/04 01:27:43;;;;;;;5.80;2.08;;;11.30;80.90;;;;;;5057755;28;20337;-64
2024/01/04 01:30:09;;;;;;;5.75;2.10;;;11.30;80.90;;;;;;5058640;28;20462;-63
2024/01/04 01:32:35;;;;;;;5.80;2.08;;;11.30;80.90;;;;;;5056888;28;20020;-63
2024/01/04 01:35:01;;;;;;;6.85;1.92;;;11.30;81.00;;;;;;5056552;28;20102;-63
2024/01/04 01:37:26;;;;;;;6.13;2.15;;;11.30;81.00;;;;;;5056959;28;20020;-64
2024/01/04 01:39:53;;;;;;;7.53;2.38;;;11.30;81.70;;;;;;5039410;28;20373;-63
2024/01/04 01:42:20;;;;;;;6.25;2.13;;;11.30;81.00;;;;;;5057010;28;20051;-63
2024/01/04 01:44:47;;;;;;;6.97;2.40;;;11.30;81.00;;;;;;5055201;28;20037;-64
2024/01/04 01:47:13;;;;;;;5.18;1.90;;;11.30;81.00;;;;;;5052915;28;20442;-63
2024/01/04 01:49:38;;;;;;;5.97;1.88;;;11.20;80.90;;;;;;5055340;28;20021;-63
2024/01/04 01:52:04;;;;;;;6.97;2.30;;;11.20;80.90;;;;;;5055279;28;20353;-64
2024/01/04 01:54:31;;;;;;;7.82;2.55;;;11.20;81.00;;;;;;5060868;28;20032;-63
2024/01/04 01:56:57;;;;;;;7.60;2.50;;;11.30;81.60;;;;;;5046922;28;20096;-64
2024/01/04 01:59:23;;;;;;;7.47;2.45;;;11.20;80.90;;;;;;5056971;28;20025;-64
2024/01/04 02:01:49;;;;;;;7.05;1.95;;;11.30;81.00;;;;;;5053546;28;20039;-63
2024/01/04 02:04:14;;;;;;;8.63;2.35;;;11.20;80.90;;;;;;5056339;28;20358;-63
2024/01/04 02:06:40;;;;;;;5.72;2.30;;;11.20;80.90;;;;;;5056498;28;20027;-64
2024/01/04 02:09:06;;;;;;;9.27;2.08;;;11.20;81.00;;;;;;5055815;28;20444;-64
2024/01/04 02:11:31;;;;;;;5.38;2.10;;;11.20;81.00;;;;;;5058101;28;20017;-63
2024/01/04 02:13:57;;;;;;;6.93;2.00;;;11.20;81.10;;;;;;5057860;28;20453;-63
2024/01/04 02:16:23;;;;;;;8.48;2.13;;;11.20;81.10;;;;;;5056433;28;20041;-63
2024/01/04 02:18:49;;;;;;;7.18;1.90;;;11.20;81.10;;;;;;5041581;28;20086;-63
2024/01/04 02:21:14;;;;;;;6.97;2.10;;;11.20;81.20;;;;;;5055297;28;20039;-63
2024/01/04 02:23:40;;;;;;;4.45;1.45;;;11.20;81.10;;;;;;5058245;28;20032;-63
2024/01/04 02:26:06;;;;;;;7.18;2.45;;;11.20;81.10;;;;;;5054367;28;20071;-63
2024/01/04 02:28:32;;;;;;;8.13;2.13;;;11.20;81.10;;;;;;5054971;28;20119;-63
2024/01/04 02:30:57;;;;;;;5.20;1.90;;;11.20;81.10;;;;;;5055712;28;20453;-63
2024/01/04 02:33:23;;;;;;;7.03;2.28;;;11.20;81.10;;;;;;5054295;28;20044;-63
2024/01/04 02:35:49;;;;;;;7.15;1.92;;;11.20;81.10;;;;;;5055189;28;20032;-64
2024/01/04 02:38:15;;;;;;;7.32;2.10;;;11.20;81.10;;;;;;5055258;28;20037;-63
2024/01/04 02:40:41;;;;;;;9.95;2.90;;;11.20;81.10;;;;;;5056473;28;20119;-63
2024/01/04 02:43:09;;;;;;;7.25;2.20;;;11.20;81.00;;;;;;5057123;28;20039;-64
2024/01/04 02:45:36;;;;;;;6.25;2.00;;;11.10;81.00;;;;;;5036351;28;20115;-63
2024/01/04 02:48:02;;;;;;;9.15;2.40;;;11.10;81.00;;;;;;5052486;28;20067;-63
2024/01/04 02:50:28;;;;;;;6.18;1.90;;;11.10;81.00;;;;;;5054386;28;20322;-63
2024/01/04 02:52:54;;;;;;;5.65;2.20;;;11.10;81.10;;;;;;5053154;28;20021;-63
2024/01/04 02:55:20;;;;;;;7.65;2.60;;;11.10;81.00;;;;;;5054355;28;20385;-64
2024/01/04 02:57:45;;;;;;;8.32;2.33;;;11.10;81.00;;;;;;5051847;28;20033;-63
2024/01/04 03:00:12;;;;;;;7.90;2.70;;;11.10;81.00;;;;;;5053985;28;20028;-64
2024/01/04 03:02:38;;;;;;;10.10;2.78;;;11.10;81.00;;;;;;5052160;28;20032;-64
2024/01/04 03:05:05;;;;;;;9.50;2.63;;;11.10;81.00;;;;;;5053048;28;20090;-63
2024/01/04 03:07:31;;;;;;;10.13;2.22;;;11.10;81.00;;;;;;5052820;28;20041;-63
2024/01/04 03:09:58;;;;;;;6.88;2.30;;;11.10;81.10;;;;;;5051330;28;20075;-63
2024/01/04 03:12:23;;;;;;;8.70;2.80;;;11.10;81.10;;;;;;5053305;28;20049;-64
2024/01/04 03:14:49;;;;;;;7.60;2.70;;;11.10;81.00;;;;;;5052966;28;20029;-64
2024/01/04 03:17:15;;;;;;;7.10;2.75;;;11.10;80.90;;;;;;5053919;28;20450;-64
2024/01/04 03:19:41;;;;;;;10.68;2.85;;;11.10;80.90;;;;;;5053289;28;20052;-63
2024/01/04 03:22:06;;;;;;;7.93;2.40;;;11.10;80.90;;;;;;5051093;28;20357;-64
2024/01/04 03:24:32;;;;;;;8.20;2.83;;;11.10;80.90;;;;;;5054048;28;20025;-64
2024/01/04 03:26:58;;;;;;;6.57;2.25;;;11.10;81.00;;;;;;5036591;28;20021;-63
2024/01/04 03:29:24;;;;;;;5.80;2.55;;;11.10;81.00;;;;;;5053795;28;20099;-63
2024/01/04 03:31:49;;;;;;;7.50;2.60;;;11.10;81.10;;;;;;5050567;28;20021;-63
2024/01/04 03:34:15;;;;;;;7.28;2.35;;;11.00;81.00;;;;;;5053344;28;20025;-64
2024/01/04 03:36:42;;;;;;;11.13;3.03;;;11.00;81.00;;;;;;5053407;28;20078;-64
2024/01/04 03:39:09;;;;;;;10.18;2.67;;;11.00;81.00;;;;;;5053806;28;20039;-63
2024/01/04 03:41:34;;;;;;;6.72;2.47;;;11.00;81.10;;;;;;5052778;28;20021;-64
2024/01/04 03:44:00;;;;;;;8.82;2.85;;;11.00;81.10;;;;;;5052983;28;20412;-64
2024/01/04 03:46:26;;;;;;;5.97;2.35;;;11.00;81.10;;;;;;5052459;28;20176;-63
2024/01/04 03:48:51;;;;;;;7.07;2.70;;;11.00;81.00;;;;;;5052199;28;20148;-63
2024/01/04 03:51:17;;;;;;;6.45;2.20;;;11.00;81.00;;;;;;5052900;28;20116;-63
2024/01/04 03:53:43;;;;;;;11.73;2.80;;;11.00;81.00;;;;;;5055940;28;20354;-63
2024/01/04 03:56:09;;;;;;;5.80;2.30;;;11.00;80.90;;;;;;5052721;28;20056;-63
2024/01/04 03:58:35;;;;;;;8.73;2.30;;;11.00;80.90;;;;;;5052639;28;20021;-63
2024/01/04 04:01:03;;;;;;;8.07;2.08;;;11.00;80.90;;;;;;5052447;28;20029;-63
2024/01/04 04:03:29;;;;;;;7.15;2.13;;;11.00;80.70;;;;;;5050104;28;20029;-64
2024/01/04 04:05:55;;;;;;;7.38;2.08;;;11.10;80.80;;;;;;5051529;28;20040;-63
2024/01/04 04:08:21;;;;;;;7.18;1.92;;;11.00;80.60;;;;;;5053183;28;20032;-63
2024/01/04 04:10:46;;;;;;;5.28;1.90;;;11.00;80.60;;;;;;5034007;28;20430;-63
2024/01/04 04:13:12;;;;;;;8.95;2.30;;;11.00;80.60;;;;;;5052368;28;20032;-63
2024/01/04 04:15:38;;;;;;;8.32;2.15;;;11.00;80.70;;;;;;5052564;28;20108;-63
2024/01/04 04:18:04;;;;;;;7.25;2.38;;;11.00;80.70;;;;;;5052549;28;20446;-63
2024/01/04 04:20:30;;;;;;;8.68;2.42;;;11.00;80.70;;;;;;5051214;28;20065;-64
2024/01/04 04:22:55;;;;;;;5.97;2.10;;;11.00;80.70;;;;;;5051107;28;20086;-63
2024/01/04 04:25:21;;;;;;;5.03;1.90;;;11.00;80.80;;;;;;5053006;28;20036;-63
2024/01/04 04:27:47;;;;;;;5.65;1.70;;;11.00;80.80;;;;;;5052550;28;20021;-63
2024/01/04 04:30:13;;;;;;;8.80;2.28;;;11.00;80.80;;;;;;5050838;28;20484;-63
2024/01/04 04:32:39;;;;;;;5.80;2.45;;;11.00;80.90;;;;;;5051535;28;20025;-64
2024/01/04 04:35:04;;;;;;;5.53;1.92;;;11.00;80.90;;;;;;5052814;28;20142;-63
2024/01/04 04:37:30;;;;;;;7.50;2.25;;;11.00;81.00;;;;;;5052744;28;20021;-63
2024/01/04 04:39:56;;;;;;;6.78;2.20;;;11.00;81.70;;;;;;5051548;28;20047;-63
2024/01/04 04:42:22;;;;;;;6.28;2.15;;;11.00;81.00;;;;;;5051680;28;20025;-63
2024/01/04 04:44:47;;;;;;;6.50;1.98;;;11.00;81.00;;;;;;5051750;28;20094;-63
2024/01/04 04:47:13;;;;;;;7.32;2.10;;;11.00;81.00;;;;;;5052242;28;20096;-63
2024/01/04 04:49:39;;;;;;;6.00;1.98;;;11.00;81.00;;;;;;5051567;28;20120;-64
2024/01/04 04:52:05;;;;;;;6.38;2.53;;;11.00;80.90;;;;;;5052428;28;20751;-63
2024/01/04 04:54:30;;;;;;;6.70;2.25;;;11.00;80.90;;;;;;5051064;28;20126;-63
2024/01/04 04:56:56;;;;;;;7.78;2.58;;;11.00;80.90;;;;;;5051527;28;20044;-63
2024/01/04 04:59:22;;;;;;;8.05;2.53;;;11.00;81.00;;;;;;5049269;28;21593;-63
2024/01/04 05:01:48;;;;;;;9.77;2.97;;;11.00;81.10;;;;;;5049237;28;21346;-63
2024/01/04 05:04:13;;;;;;;9.65;3.17;;;10.90;81.10;;;;;;5048369;28;20025;-63
2024/01/04 05:06:39;;;;;;;7.28;2.42;;;11.00;81.10;;;;;;5046569;28;20024;-63
2024/01/04 05:09:07;;;;;;;7.88;2.50;;;10.90;81.10;;;;;;5050267;28;20067;-63
2024/01/04 05:11:33;;;;;;;8.05;2.70;;;11.00;81.10;;;;;;5059128;28;20025;-63
2024/01/04 05:13:59;;;;;;;7.35;2.67;;;11.00;81.10;;;;;;5050377;28;20426;-63
2024/01/04 05:16:25;;;;;;;7.95;3.03;;;11.00;81.10;;;;;;5052093;28;20035;-63
2024/01/04 05:18:50;;;;;;;9.30;2.78;;;11.00;81.20;;;;;;5052090;28;20021;-63
2024/01/04 05:21:16;;;;;;;5.45;1.70;;;11.00;81.30;;;;;;5040498;28;20343;-63
2024/01/04 05:23:42;;;;;;;5.07;2.33;;;10.90;81.20;;;;;;5034654;28;20083;-63
2024/01/04 05:26:07;;;;;;;6.05;2.10;;;10.90;81.20;;;;;;5034845;28;20044;-63
2024/01/04 05:28:33;;;;;;;3.67;1.65;;;10.90;81.20;;;;;;5045056;28;20037;-63
2024/01/04 05:30:59;;;;;;;4.57;1.60;;;10.90;81.20;;;;;;5054647;28;20100;-63
2024/01/04 05:33:25;;;;;;;4.45;1.70;;;10.90;81.20;;;;;;5045964;28;20468;-63
2024/01/04 05:35:51;;;;;;;4.68;2.00;;;10.90;81.20;;;;;;5041248;28;20047;-63
2024/01/04 05:38:17;;;;;;;5.57;1.60;;;10.90;81.30;;;;;;5049352;28;20369;-63
2024/01/04 05:40:42;;;;;;;4.88;1.67;;;10.90;81.30;;;;;;5053446;28;20029;-63
2024/01/04 05:43:08;;;;;;;4.00;1.73;;;10.90;81.40;;;;;;5055448;28;20017;-63
2024/01/04 05:45:34;;;;;;;4.65;1.85;;;10.90;81.30;;;;;;5054442;28;20500;-63
2024/01/04 05:47:59;;;;;;;4.78;1.80;;;10.90;81.30;;;;;;5053995;28;20033;-63
2024/01/04 05:50:25;;;;;;;3.97;1.35;;;10.90;81.20;;;;;;5053807;28;20243;-63
2024/01/04 05:52:51;;;;;;;4.82;1.67;;;10.90;81.20;;;;;;5054115;28;20189;-63
2024/01/04 05:55:17;;;;;;;5.75;1.63;;;10.90;81.20;;;;;;5053879;28;20047;-63
2024/01/04 05:57:43;;;;;;;4.78;1.65;;;10.90;81.30;;;;;;5054866;28;20037;-63
2024/01/04 06:00:10;;;;;;;5.10;1.60;;;10.80;81.30;;;;;;5054207;28;20037;-63
2024/01/04 06:02:35;;;;;;;4.85;1.83;;;10.80;81.30;;;;;;5053105;28;20394;-63
2024/01/04 06:05:01;;;;;;;3.72;1.60;;;10.80;81.30;;;;;;5055069;28;20138;-63
2024/01/04 06:07:27;;;;;;;5.43;2.17;;;10.80;81.30;;;;;;5055802;28;20035;-63
2024/01/04 06:09:53;;;;;;;6.80;2.20;;;10.80;81.40;;;;;;5056032;28;20346;-63
2024/01/04 06:12:18;;;;;;;4.45;1.92;;;10.80;81.40;;;;;;5056326;28;20409;-63
2024/01/04 06:14:45;;;;;;;5.97;1.80;;;10.80;81.40;;;;;;5055877;28;20462;-63
2024/01/04 06:17:11;;;;;;;4.45;1.80;;;10.80;81.40;;;;;;5053913;28;20028;-63
2024/01/04 06:19:37;;;;;;;6.38;1.77;;;10.80;81.40;;;;;;5053431;28;20033;-64
2024/01/04 06:22:03;;;;;;;5.38;1.98;;;10.80;81.40;;;;;;5054706;28;20033;-63
2024/01/04 06:24:28;;;;;;;4.15;1.80;;;10.80;81.40;;;;;;5054324;28;20033;-63
2024/01/04 06:26:54;;;;;;;5.20;2.05;;;10.80;81.40;;;;;;5054072;28;20027;-63
2024/01/04 06:29:20;;;;;;;6.32;1.98;;;10.80;81.50;;;;;;5054836;28;20071;-63
2024/01/04 06:31:46;;;;;;;6.90;2.40;;;10.80;81.50;;;;;;5054604;28;20097;-63
2024/01/04 06:34:11;;;;;;;5.70;2.33;;;10.80;81.60;;;;;;5053528;28;20036;-64
2024/01/04 06:36:38;;;;;;;6.43;2.35;;;10.80;81.60;;;;;;5054676;28;20504;-63
2024/01/04 06:39:03;;;;;;;7.32;2.40;;;10.80;81.60;;;;;;5034997;28;20033;-63
2024/01/04 06:41:29;;;;;;;6.32;2.15;;;10.80;81.70;;;;;;5054030;28;20036;-63
2024/01/04 06:43:56;;;;;;;7.78;2.35;;;10.80;81.70;;;;;;5053279;28;20025;-63
2024/01/04 06:46:22;;;;;;;6.15;2.28;;;10.80;81.60;;;;;;5054984;28;20400;-63
2024/01/04 06:48:47;;;;;;;6.95;2.30;;;10.80;82.30;;;;;;5053998;28;20111;-63
2024/01/04 06:51:13;;;;;;;5.10;2.08;;;10.80;81.60;;;;;;5054169;28;20057;-63
2024/01/04 06:53:39;;;;;;;6.25;2.38;;;10.80;81.60;;;;;;5052406;28;20154;-63
2024/01/04 06:56:05;;;;;;;8.95;2.13;;;10.80;81.70;;;;;;5054396;28;20453;-63
2024/01/04 06:58:31;;;;;;;5.88;2.15;;;10.80;81.70;;;;;;5054516;28;20057;-63
2024/01/04 07:00:57;;;;;;;6.88;2.38;;;10.80;81.80;;;;;;5053630;28;20110;-63
2024/01/04 07:03:23;;;;;;;5.95;2.40;;;10.80;81.70;;;;;;5054092;28;20039;-63
2024/01/04 07:05:49;;;;;;;6.60;2.40;;;10.70;81.70;;;;;;5054513;28;20029;-63
2024/01/04 07:08:14;;;;;;;7.00;2.55;;;10.70;81.70;;;;;;5049491;28;20030;-63
2024/01/04 07:10:40;;;;;;;7.82;2.50;;;10.70;81.70;;;;;;5053453;28;20029;-63
2024/01/04 07:13:07;;;;;;;8.80;2.47;;;10.80;81.80;;;;;;5051947;28;20033;-63
2024/01/04 07:15:33;;;;;;;6.38;2.40;;;10.70;81.80;;;;;;5050396;28;20029;-63
2024/01/04 07:17:59;;;;;;;5.03;2.13;;;10.70;81.80;;;;;;5051376;28;20059;-63
2024/01/04 07:20:24;;;;;;;6.80;2.40;;;10.70;81.80;;;;;;5051565;28;20040;-63
2024/01/04 07:22:52;;;;;;;6.68;2.55;;;10.70;81.80;;;;;;5051729;28;20033;-63
2024/01/04 07:25:22;;;;;;;6.53;2.55;;;10.70;81.80;;;;;;5050605;28;20442;-63
2024/01/04 07:27:48;;;;;;;7.80;2.78;;;10.70;81.90;;;;;;5050320;28;20021;-63
2024/01/04 07:30:14;;;;;;;5.25;2.50;;;10.70;81.90;;;;;;5052219;28;20021;-63
2024/01/04 07:32:39;;;;;;;7.57;2.53;;;10.70;81.90;;;;;;5052123;28;20029;-63
2024/01/04 07:35:06;;;;;;;5.93;2.45;;;10.70;81.90;;;;;;5051004;28;20346;-63
2024/01/04 07:37:31;;;;;;;6.03;2.67;;;10.70;81.80;;;;;;5053906;28;20028;-63
2024/01/04 07:39:57;;;;;;;5.72;2.50;;;10.70;81.80;;;;;;5052099;28;20047;-63
2024/01/04 07:42:23;;;;;;;6.15;2.60;;;10.70;81.80;;;;;;5053626;28;20033;-63
2024/01/04 07:44:49;;;;;;;5.18;2.00;;;10.70;81.90;;;;;;5035430;28;20021;-63
2024/01/04 07:47:15;;;;;;;5.57;2.28;;;10.70;81.90;;;;;;5053462;28;20012;-63
2024/01/04 07:49:40;;;;;;;5.78;2.30;;;10.70;81.90;;;;;;5052397;28;20099;-63
2024/01/04 07:52:07;;;;;;;5.00;1.90;;;10.70;81.90;;;;;;5052784;28;20082;-63
2024/01/04 07:54:33;;;;;;;5.43;2.08;;;10.70;81.90;;;;;;5052877;28;20075;-63
2024/01/04 07:57:00;;;;;;;5.28;2.00;;;10.70;81.90;;;;;;5053665;28;20464;-63
2024/01/04 07:59:26;;;;;;;5.72;2.20;;;10.70;81.90;;;;;;5052849;28;20500;-63
2024/01/04 08:01:52;;;;;;;7.22;2.55;;;10.70;81.90;;;;;;5051505;28;20029;-63
2024/01/04 08:04:18;;;;;;;7.22;2.47;;;10.70;81.90;;;;;;5035455;28;20028;-63
2024/01/04 08:06:44;;;;;;;5.35;2.20;;;10.70;81.90;;;;;;5052563;28;20358;-63
2024/01/04 08:09:11;;;;;;;5.80;2.30;;;10.70;81.90;;;;;;5052809;28;20029;-63
2024/01/04 08:11:38;;;;;;;5.53;2.05;;;10.70;81.90;;;;;;5051559;28;20034;-64
2024/01/04 08:14:04;;;;;;;7.43;2.67;;;10.70;81.90;;;;;;5052079;28;20135;-63
2024/01/04 08:16:30;;;;;;;6.82;2.67;;;10.80;82.60;;;;;;5052285;28;20454;-63
2024/01/04 08:18:56;;;;;;;6.70;2.70;;;10.80;81.90;;;;;;5052987;28;20033;-63
2024/01/04 08:21:21;;;;;;;6.57;2.90;;;10.70;81.80;;;;;;5051755;28;20064;-63
2024/01/04 08:23:50;;;;;;;7.43;3.05;;;10.70;81.80;;;;;;5053584;28;20028;-63
2024/01/04 08:26:16;;;;;;;6.97;2.80;;;10.80;81.80;;;;;;5052382;28;20017;-63
2024/01/04 08:28:41;;;;;;;6.57;2.72;;;10.80;81.80;;;;;;5051684;28;20029;-63
2024/01/04 08:31:07;;;;;;;6.53;2.30;;;10.80;81.70;;;;;;5052952;28;20043;-63
2024/01/04 08:33:33;;;;;;;6.35;2.63;;;10.80;81.70;;;;;;5033668;28;20040;-63
2024/01/04 08:35:59;;;;;;;5.47;2.38;;;10.80;81.80;;;;;;5052578;28;20025;-63
2024/01/04 08:38:25;;;;;;;6.43;2.40;;;10.80;81.70;;;;;;5034808;28;20462;-63
2024/01/04 08:40:50;;;;;;;6.28;2.72;;;10.80;81.60;;;;;;5053034;28;20037;-64
2024/01/04 08:43:16;;;;;;;6.35;2.65;;;10.80;81.70;;;;;;5052475;28;20039;-63
2024/01/04 08:45:42;;;;;;;6.80;2.75;;;10.80;81.70;;;;;;5052881;28;20032;-63
2024/01/04 08:48:08;;;;;;;7.43;2.55;;;10.80;81.70;;;;;;5052534;28;20025;-63
2024/01/04 08:50:34;;;;;;;8.50;2.88;;;10.80;81.70;;;;;;5054072;28;20311;-63
2024/01/04 08:53:00;;;;;;;8.43;2.70;;;10.80;81.70;;;;;;5054234;28;20032;-61
2024/01/04 08:55:25;;;;;;;9.07;3.03;;;10.90;81.70;;;;;;5053039;28;20065;-63
2024/01/04 08:57:51;;;;;;;7.35;3.03;;;10.80;81.60;;;;;;5052451;28;20061;-63
2024/01/04 09:00:17;;;;;;;7.88;2.90;;;10.80;81.70;;;;;;5051341;28;20025;-63
2024/01/04 09:02:45;;;;;;;8.00;3.08;;;10.80;81.80;;;;;;5056693;28;20032;-63
2024/01/04 09:05:11;;;;;;;6.57;2.30;;;10.80;81.80;;;;;;5057942;28;20047;-64
2024/01/04 09:07:37;;;;;;;6.18;2.80;;;10.80;81.70;;;;;;5057735;28;20036;-64
2024/01/04 09:10:04;;;;;;;7.00;2.55;;;10.80;81.70;;;;;;5055741;28;20513;-63
2024/01/04 09:12:30;;;;;;;6.80;2.85;;;10.90;81.80;;;;;;5056644;28;20104;-64
2024/01/04 09:14:56;;;;;;;6.13;2.53;;;10.90;81.80;;;;;;5057670;28;20052;-64
2024/01/04 09:17:21;;;;;;;5.13;2.47;;;10.80;81.70;;;;;;5039278;28;20130;-63
2024/01/04 09:19:49;;;;;;;8.27;2.80;;;10.80;81.70;;;;;;5057678;28;20033;-63
2024/01/04 09:22:15;;;;;;;6.38;2.33;;;10.80;81.70;;;;;;5056166;28;20040;-63
2024/01/04 09:24:41;;;;;;;7.15;2.63;;;10.80;81.70;;;;;;5057483;28;20036;-63
2024/01/04 09:27:07;;;;;;;6.97;2.85;;;10.90;81.80;;;;;;5055543;28;20043;-63
2024/01/04 09:29:33;;;;;;;8.90;3.72;;;10.90;81.80;;;;;;5054521;28;20029;-63
2024/01/04 09:32:01;;;;;;;7.30;3.55;;;10.90;81.80;;;;;;5056111;28;20051;-63
2024/01/04 09:34:27;;;;;;;6.72;3.13;;;10.90;81.80;;;;;;5056479;28;20091;-63
2024/01/04 09:36:54;;;;;;;8.00;3.45;;;10.90;81.80;;;;;;5057164;28;20496;-63
2024/01/04 09:39:20;;;;;;;7.55;3.45;;;10.90;81.80;;;;;;5055886;28;20029;-63
2024/01/04 09:41:48;;;;;;;7.20;3.08;;;11.00;81.80;;;;;;5054796;28;20449;-63
2024/01/04 09:44:14;;;;;;;8.13;3.92;;;10.90;81.80;;;;;;5055484;28;20033;-63
2024/01/04 09:46:41;;;;;;;7.75;3.33;;;10.90;81.80;;;;;;5055953;28;20029;-63
2024/01/04 09:49:09;;;;;;;7.60;3.80;;;11.00;81.90;;;;;;5055493;28;20098;-63
2024/01/04 09:51:39;;;;;;;8.30;3.63;;;11.00;81.90;;;;;;5055149;28;20064;-63
2024/01/04 09:54:08;;;;;;;8.25;3.17;;;11.00;81.90;;;;;;5056608;28;20033;-63
2024/01/04 09:56:44;;;;;;;8.65;3.50;;;11.00;81.90;;;;;;5056257;28;20128;-64
2024/01/04 09:59:10;;;;;;;6.68;3.45;;;11.00;81.90;;;;;;5056937;28;20142;-64
2024/01/04 10:01:38;;;;;;;7.88;3.25;;;11.00;81.80;;;;;;5057122;28;20029;-64
2024/01/04 10:04:16;;;;;;;8.75;3.95;;;11.00;81.90;;;;;;5055407;28;20041;-64
2024/01/04 10:06:45;;;;;;;8.60;3.28;;;11.00;82.00;;;;;;5051729;28;20021;-64
2024/01/04 10:09:32;;;;;;;7.03;3.55;;;11.00;82.00;;;;;;5053507;28;20036;-64
2024/01/04 10:11:57;;;;;;;6.65;3.42;;;11.10;82.00;;;;;;5045490;28;20025;-64
2024/01/04 10:14:24;;;;;;;8.05;3.63;;;11.00;82.00;;;;;;5053468;28;20373;-64
2024/01/04 10:16:51;;;;;;;8.23;3.40;;;11.10;82.10;;;;;;5053824;28;20033;-62
2024/01/04 10:19:17;;;;;;;8.10;3.95;;;11.10;82.10;;;;;;5055855;28;20036;-61
2024/01/04 10:21:43;;;;;;;9.48;3.60;;;11.10;82.00;;;;;;5055470;28;20126;-61
2024/01/04 10:24:13;;;;;;;8.18;3.10;;;11.10;82.10;;;;;;5054895;28;20035;-61
2024/01/04 10:26:41;;;;;;;6.75;3.20;;;11.10;82.20;;;;;;5052838;28;20075;-61
2024/01/04 10:29:06;;;;;;;7.80;3.60;;;11.00;82.20;;;;;;5047533;28;20442;-61
2024/01/04 10:31:34;;;;;;;9.25;3.03;;;11.00;82.20;;;;;;5055381;28;20104;-60
2024/01/04 10:34:00;;;;;;;6.53;2.85;;;11.00;82.20;;;;;;5055644;28;20033;-61
2024/01/04 10:36:30;;;;;;;7.03;3.45;;;11.00;82.20;;;;;;5055540;28;20061;-61
2024/01/04 10:39:06;;;;;;;8.75;3.53;;;11.10;82.20;;;;;;5055598;28;20033;-61
2024/01/04 10:41:32;;;;;;;8.05;3.17;;;11.00;82.10;;;;;;5054909;28;20052;-61
2024/01/04 10:44:08;;;;;;;6.13;3.17;;;11.10;82.10;;;;;;5048076;28;20041;-61
2024/01/04 10:46:36;;;;;;;7.60;3.40;;;11.10;82.10;;;;;;5036722;28;20017;-62
2024/01/04 10:49:03;;;;;;;7.90;3.40;;;11.10;82.10;;;;;;5055766;28;20021;-62
2024/01/04 10:51:32;;;;;;;6.03;2.90;;;11.20;82.10;;;;;;5037728;28;20029;-61
2024/01/04 10:54:01;;;;;;;5.28;2.17;;;11.20;82.10;;;;;;5052495;28;20400;-62
2024/01/04 10:56:32;;;;;;;7.97;3.00;;;11.20;82.10;;;;;;5049115;28;20470;-60
2024/01/04 10:58:59;;;;;;;6.05;2.58;;;11.20;82.00;;;;;;5055230;28;20334;-61
2024/01/04 11:01:28;;;;;;;7.15;2.65;;;11.20;82.10;;;;;;5054015;28;20060;-61
2024/01/04 11:03:57;;;;;;;6.65;2.70;;;11.20;82.10;;;;;;5053665;28;20072;-61
2024/01/04 11:06:26;;;;;;;6.95;2.50;;;11.20;82.10;;;;;;5057937;28;20480;-61
2024/01/04 11:08:57;;;;;;;6.25;2.40;;;11.20;82.10;;;;;;5066376;28;20043;-61
2024/01/04 11:11:25;;;;;;;5.90;2.43;;;11.20;82.10;;;;;;5062484;28;20523;-61
2024/01/04 11:13:51;;;;;;;6.30;2.13;;;11.20;82.10;;;;;;5058137;28;20320;-61
2024/01/04 11:16:44;;;;;;;6.80;2.33;;;11.20;82.00;;;;;;5058042;28;20402;-61
2024/01/04 11:19:41;;;;;;;7.03;2.45;;;11.30;82.00;;;;;;5064298;28;20036;-61
2024/01/04 11:22:07;;;;;;;5.88;2.20;;;11.30;82.00;;;;;;5067321;28;20032;-62
2024/01/04 11:25:01;;;;;;;8.55;1.52;;;11.30;82.10;;;;;;5074183;28;20086;-62
2024/01/04 11:27:28;;;;;;;6.55;1.95;;;11.30;82.10;;;;;;5068389;28;20362;-62
2024/01/04 11:29:55;;;;;;;5.57;2.58;;;11.30;82.10;;;;;;5064234;28;20025;-61
2024/01/04 11:32:21;;;;;;;3.25;1.55;;;11.30;82.00;;;;;;5058247;28;20017;-61
2024/01/04 11:34:48;;;;;;;6.10;2.22;;;11.30;82.00;;;;;;5056063;28;20033;-61
2024/01/04 11:37:22;;;;;;;5.95;1.95;;;11.40;82.00;;;;;;5054782;28;20033;-61
2024/01/04 11:40:03;;;;;;;5.72;1.80;;;11.40;82.00;;;;;;5051633;28;20036;-62
2024/01/04 11:42:35;;;;;;;9.10;2.10;;;11.50;81.80;;;;;;5055810;28;20029;-62
2024/01/04 11:45:05;;;;;;;4.05;1.80;;;11.60;81.70;;;;;;5050556;28;20024;-62
2024/01/04 11:47:43;;;;;;;4.30;1.80;;;11.70;81.50;;;;;;5051234;28;20014;-61
2024/01/04 11:50:30;;;;;;;5.13;1.92;;;11.70;81.40;;;;;;5055887;28;20098;-62
2024/01/04 11:53:06;;;;;;;5.63;2.05;;;11.80;81.30;;;;;;5053381;28;20107;-61
2024/01/04 11:55:33;;;;;;;5.05;1.83;;;11.80;81.40;;;;;;5046078;28;20472;-61
2024/01/04 11:58:11;;;;;;;5.63;2.20;;;11.70;81.40;;;;;;5052671;28;20043;-61
2024/01/04 12:01:03;;;;;;;5.60;2.20;;;11.70;81.50;;;;;;5051929;28;20462;-62
2024/01/04 12:03:29;;;;;;;;;;;11.70;81.50;;;;;;5052646;28;20040;-62
2024/01/04 12:05:55;;;;;;;4.65;2.08;;;11.70;81.50;;;;;;5052341;28;19970;-62
2024/01/04 12:08:31;;;;;;;5.47;2.15;;;11.60;81.50;;;;;;5051697;28;20365;-61
2024/01/04 12:11:03;;;;;;;6.32;2.10;;;11.60;81.60;;;;;;5051384;28;20377;-62
2024/01/04 12:13:29;;;;;;;5.65;2.20;;;11.60;81.60;;;;;;5052415;28;20335;-62
2024/01/04 12:15:55;;;;;;;12.98;2.47;;;11.60;81.70;;;;;;5053101;28;20017;-62
2024/01/04 12:18:21;;;;;;;6.28;2.63;;;11.60;81.70;;;;;;5052384;28;20507;-62
2024/01/04 12:20:47;;;;;;;6.38;2.10;;;11.60;81.70;;;;;;5067099;28;20029;-62
2024/01/04 12:23:13;;;;;;;4.15;2.20;;;11.70;81.80;;;;;;5052765;28;20352;-61
2024/01/04 12:25:40;;;;;;;8.23;2.75;;;11.70;81.80;;;;;;5053209;28;20108;-61
2024/01/04 12:28:08;;;;;;;5.65;2.30;;;11.70;81.80;;;;;;5053487;28;20029;-61
2024/01/04 12:30:36;;;;;;;6.15;2.70;;;11.70;81.70;;;;;;5053597;28;20327;-61
2024/01/04 12:33:03;;;;;;;5.05;2.22;;;11.70;81.70;;;;;;5050517;28;20017;-61
2024/01/04 12:35:29;;;;;;;5.97;2.50;;;11.70;81.70;;;;;;5053732;28;20072;-61
2024/01/04 12:38:03;;;;;;;7.15;2.50;;;11.70;81.80;;;;;;5057296;28;20475;-61
2024/01/04 12:40:39;;;;;;;5.22;2.10;;;11.60;81.80;;;;;;5056416;28;20037;-61
2024/01/04 12:43:05;;;;;;;7.63;2.83;;;11.60;81.80;;;;;;5056515;28;20035;-61
2024/01/04 12:45:31;;;;;;;7.82;2.50;;;11.60;81.90;;;;;;5056631;28;20032;-61